sensor_id;sensor_type;location;lat;lon;timestamp;temperature;humidity
16172;DHT22;8192;53.596;10.166;2023-06-10T00:01:40;12.80;93.20
16172;DHT22;8192;53.596;10.166;2023-06-10T00:04:07;12.80;93.00
16172;DHT22;8192;53.596;10.166;2023-06-10T00:06:34;12.80;93.10
16172;DHT22;8192;53.596;10.166;2023-06-10T00:09:03;12.80;93.20
16172;DHT22;8192;53.596;10.166;2023-06-10T00:11:31;12.80;92.80
16172;DHT22;8192;53.596;10.166;2023-06-10T00:13:59;12.80;92.80
16172;DHT22;8192;53.596;10.166;2023-06-10T00:16:28;12.80;92.60
16172;DHT22;8192;53.596;10.166;2023-06-10T00:18:56;12.70;92.60
16172;DHT22;8192;53.596;10.166;2023-06-10T00:21:26;12.70;92.60
16172;DHT22;8192;53.596;10.166;2023-06-10T00:23:53;12.60;92.70
16172;DHT22;8192;53.596;10.166;2023-06-10T00:26:21;12.70;92.40
16172;DHT22;8192;53.596;10.166;2023-06-10T00:28:48;12.80;92.00
16172;DHT22;8192;53.596;10.166;2023-06-10T00:31:15;12.70;91.90
16172;DHT22;8192;53.596;10.166;2023-06-10T00:33:44;12.70;91.70
16172;DHT22;8192;53.596;10.166;2023-06-10T00:36:11;12.70;91.70
16172;DHT22;8192;53.596;10.166;2023-06-10T00:38:38;12.60;91.70
16172;DHT22;8192;53.596;10.166;2023-06-10T00:41:06;12.60;91.60
16172;DHT22;8192;53.596;10.166;2023-06-10T00:43:33;12.60;91.90
16172;DHT22;8192;53.596;10.166;2023-06-10T00:46:00;12.50;91.70
16172;DHT22;8192;53.596;10.166;2023-06-10T00:48:28;12.40;91.90
16172;DHT22;8192;53.596;10.166;2023-06-10T00:50:57;12.40;91.90
16172;DHT22;8192;53.596;10.166;2023-06-10T00:53:24;12.40;91.90
16172;DHT22;8192;53.596;10.166;2023-06-10T00:55:52;12.30;91.70
16172;DHT22;8192;53.596;10.166;2023-06-10T00:58:19;12.20;91.90
16172;DHT22;8192;53.596;10.166;2023-06-10T01:00:46;12.00;92.00
16172;DHT22;8192;53.596;10.166;2023-06-10T01:03:15;11.80;92.50
16172;DHT22;8192;53.596;10.166;2023-06-10T01:05:43;11.80;92.60
16172;DHT22;8192;53.596;10.166;2023-06-10T01:08:17;11.90;92.80
16172;DHT22;8192;53.596;10.166;2023-06-10T01:10:51;12.00;92.50
16172;DHT22;8192;53.596;10.166;2023-06-10T01:13:23;12.00;92.40
16172;DHT22;8192;53.596;10.166;2023-06-10T01:15:50;11.90;92.60
16172;DHT22;8192;53.596;10.166;2023-06-10T01:18:18;11.80;92.50
16172;DHT22;8192;53.596;10.166;2023-06-10T01:20:47;11.60;93.10
16172;DHT22;8192;53.596;10.166;2023-06-10T01:23:16;11.60;93.10
16172;DHT22;8192;53.596;10.166;2023-06-10T01:25:47;11.70;92.90
16172;DHT22;8192;53.596;10.166;2023-06-10T01:28:21;11.70;92.90
16172;DHT22;8192;53.596;10.166;2023-06-10T01:30:56;11.70;92.90
16172;DHT22;8192;53.596;10.166;2023-06-10T01:33:28;11.60;92.80
16172;DHT22;8192;53.596;10.166;2023-06-10T01:35:57;11.60;93.10
16172;DHT22;8192;53.596;10.166;2023-06-10T01:38:27;11.50;93.10
16172;DHT22;8192;53.596;10.166;2023-06-10T01:40:56;11.50;93.00
16172;DHT22;8192;53.596;10.166;2023-06-10T01:43:24;11.40;93.10
16172;DHT22;8192;53.596;10.166;2023-06-10T01:45:51;11.60;93.00
16172;DHT22;8192;53.596;10.166;2023-06-10T01:48:18;11.60;92.90
16172;DHT22;8192;53.596;10.166;2023-06-10T01:50:45;11.80;92.50
16172;DHT22;8192;53.596;10.166;2023-06-10T01:53:12;11.80;92.30
16172;DHT22;8192;53.596;10.166;2023-06-10T01:55:41;11.80;92.10
16172;DHT22;8192;53.596;10.166;2023-06-10T01:58:08;11.70;92.30
16172;DHT22;8192;53.596;10.166;2023-06-10T02:00:35;11.60;92.30
16172;DHT22;8192;53.596;10.166;2023-06-10T02:03:02;11.70;92.20
16172;DHT22;8192;53.596;10.166;2023-06-10T02:05:29;11.60;92.20
16172;DHT22;8192;53.596;10.166;2023-06-10T02:07:56;11.50;92.30
16172;DHT22;8192;53.596;10.166;2023-06-10T02:10:23;11.50;92.40
16172;DHT22;8192;53.596;10.166;2023-06-10T02:12:52;11.40;92.60
16172;DHT22;8192;53.596;10.166;2023-06-10T02:15:19;11.40;92.60
16172;DHT22;8192;53.596;10.166;2023-06-10T02:17:46;11.40;92.80
16172;DHT22;8192;53.596;10.166;2023-06-10T02:20:14;11.50;92.60
16172;DHT22;8192;53.596;10.166;2023-06-10T02:22:41;11.40;92.60
16172;DHT22;8192;53.596;10.166;2023-06-10T02:25:11;11.30;92.70
16172;DHT22;8192;53.596;10.166;2023-06-10T02:27:38;11.30;92.70
16172;DHT22;8192;53.596;10.166;2023-06-10T02:30:08;11.30;92.70
16172;DHT22;8192;53.596;10.166;2023-06-10T02:32:36;11.30;92.70
16172;DHT22;8192;53.596;10.166;2023-06-10T02:35:04;11.30;92.80
16172;DHT22;8192;53.596;10.166;2023-06-10T02:37:31;11.30;92.70
16172;DHT22;8192;53.596;10.166;2023-06-10T02:39:58;11.40;92.70
16172;DHT22;8192;53.596;10.166;2023-06-10T02:42:25;11.30;92.40
16172;DHT22;8192;53.596;10.166;2023-06-10T02:44:52;11.30;92.60
16172;DHT22;8192;53.596;10.166;2023-06-10T02:47:20;11.30;92.80
16172;DHT22;8192;53.596;10.166;2023-06-10T02:49:47;11.20;92.80
16172;DHT22;8192;53.596;10.166;2023-06-10T02:52:15;11.30;92.90
16172;DHT22;8192;53.596;10.166;2023-06-10T02:54:41;11.40;92.70
16172;DHT22;8192;53.596;10.166;2023-06-10T02:57:08;11.40;92.60
16172;DHT22;8192;53.596;10.166;2023-06-10T02:59:36;11.30;92.60
16172;DHT22;8192;53.596;10.166;2023-06-10T03:02:03;11.40;92.60
16172;DHT22;8192;53.596;10.166;2023-06-10T03:04:32;11.50;92.40
16172;DHT22;8192;53.596;10.166;2023-06-10T03:06:59;11.40;92.50
16172;DHT22;8192;53.596;10.166;2023-06-10T03:09:29;11.40;92.40
16172;DHT22;8192;53.596;10.166;2023-06-10T03:11:56;11.40;92.60
16172;DHT22;8192;53.596;10.166;2023-06-10T03:14:25;11.40;92.40
16172;DHT22;8192;53.596;10.166;2023-06-10T03:16:52;11.40;92.50
16172;DHT22;8192;53.596;10.166;2023-06-10T03:19:19;11.30;92.50
16172;DHT22;8192;53.596;10.166;2023-06-10T03:21:49;11.20;92.80
16172;DHT22;8192;53.596;10.166;2023-06-10T03:24:21;11.30;92.70
16172;DHT22;8192;53.596;10.166;2023-06-10T03:26:48;11.20;92.70
16172;DHT22;8192;53.596;10.166;2023-06-10T03:29:15;11.10;93.00
16172;DHT22;8192;53.596;10.166;2023-06-10T03:31:42;11.00;93.10
16172;DHT22;8192;53.596;10.166;2023-06-10T03:34:10;11.10;93.10
16172;DHT22;8192;53.596;10.166;2023-06-10T03:36:37;11.20;93.10
16172;DHT22;8192;53.596;10.166;2023-06-10T03:39:09;11.20;92.90
16172;DHT22;8192;53.596;10.166;2023-06-10T03:41:36;11.30;92.80
16172;DHT22;8192;53.596;10.166;2023-06-10T03:44:04;11.30;92.80
16172;DHT22;8192;53.596;10.166;2023-06-10T03:46:30;11.30;92.70
16172;DHT22;8192;53.596;10.166;2023-06-10T03:48:57;11.40;92.70
16172;DHT22;8192;53.596;10.166;2023-06-10T03:51:26;11.50;92.60
16172;DHT22;8192;53.596;10.166;2023-06-10T03:53:53;11.60;92.40
16172;DHT22;8192;53.596;10.166;2023-06-10T03:56:21;11.70;92.30
16172;DHT22;8192;53.596;10.166;2023-06-10T03:58:48;11.90;92.00
16172;DHT22;8192;53.596;10.166;2023-06-10T04:01:15;12.10;92.10
16172;DHT22;8192;53.596;10.166;2023-06-10T04:03:43;12.90;90.80
16172;DHT22;8192;53.596;10.166;2023-06-10T04:06:10;13.50;87.30
16172;DHT22;8192;53.596;10.166;2023-06-10T04:08:37;13.90;85.60
16172;DHT22;8192;53.596;10.166;2023-06-10T04:11:04;14.40;82.90
16172;DHT22;8192;53.596;10.166;2023-06-10T04:13:33;15.10;80.80
16172;DHT22;8192;53.596;10.166;2023-06-10T04:16:00;15.90;76.60
16172;DHT22;8192;53.596;10.166;2023-06-10T04:18:28;16.40;73.60
16172;DHT22;8192;53.596;10.166;2023-06-10T04:20:55;16.70;71.40
16172;DHT22;8192;53.596;10.166;2023-06-10T04:23:22;16.80;70.80
16172;DHT22;8192;53.596;10.166;2023-06-10T04:25:49;17.00;69.80
16172;DHT22;8192;53.596;10.166;2023-06-10T04:28:16;17.00;69.80
16172;DHT22;8192;53.596;10.166;2023-06-10T04:30:44;17.60;68.60
16172;DHT22;8192;53.596;10.166;2023-06-10T04:33:11;18.20;66.20
16172;DHT22;8192;53.596;10.166;2023-06-10T04:35:38;18.70;64.00
16172;DHT22;8192;53.596;10.166;2023-06-10T04:38:05;19.00;62.70
16172;DHT22;8192;53.596;10.166;2023-06-10T04:40:33;19.20;61.50
16172;DHT22;8192;53.596;10.166;2023-06-10T04:42:59;19.10;61.20
16172;DHT22;8192;53.596;10.166;2023-06-10T04:45:26;19.40;60.50
16172;DHT22;8192;53.596;10.166;2023-06-10T04:47:56;19.40;60.40
16172;DHT22;8192;53.596;10.166;2023-06-10T04:50:23;19.70;59.70
16172;DHT22;8192;53.596;10.166;2023-06-10T04:52:50;19.80;59.80
16172;DHT22;8192;53.596;10.166;2023-06-10T04:55:17;19.90;59.30
16172;DHT22;8192;53.596;10.166;2023-06-10T04:57:44;19.90;58.90
16172;DHT22;8192;53.596;10.166;2023-06-10T05:00:12;19.80;59.90
16172;DHT22;8192;53.596;10.166;2023-06-10T05:02:39;19.70;60.10
16172;DHT22;8192;53.596;10.166;2023-06-10T05:05:09;20.10;59.30
16172;DHT22;8192;53.596;10.166;2023-06-10T05:07:36;20.40;58.30
16172;DHT22;8192;53.596;10.166;2023-06-10T05:10:03;20.10;58.80
16172;DHT22;8192;53.596;10.166;2023-06-10T05:12:30;20.20;58.70
16172;DHT22;8192;53.596;10.166;2023-06-10T05:14:57;20.40;57.90
16172;DHT22;8192;53.596;10.166;2023-06-10T05:17:24;20.60;57.30
16172;DHT22;8192;53.596;10.166;2023-06-10T05:19:51;20.80;59.00
16172;DHT22;8192;53.596;10.166;2023-06-10T05:22:20;21.30;55.80
16172;DHT22;8192;53.596;10.166;2023-06-10T05:24:49;21.20;55.60
16172;DHT22;8192;53.596;10.166;2023-06-10T05:27:16;20.90;56.40
16172;DHT22;8192;53.596;10.166;2023-06-10T05:29:44;20.40;57.80
16172;DHT22;8192;53.596;10.166;2023-06-10T05:32:12;20.30;58.10
16172;DHT22;8192;53.596;10.166;2023-06-10T05:34:39;20.50;58.40
16172;DHT22;8192;53.596;10.166;2023-06-10T05:37:06;20.60;57.60
16172;DHT22;8192;53.596;10.166;2023-06-10T05:39:35;20.70;56.90
16172;DHT22;8192;53.596;10.166;2023-06-10T05:42:04;20.50;57.80
16172;DHT22;8192;53.596;10.166;2023-06-10T05:44:32;20.50;57.60
16172;DHT22;8192;53.596;10.166;2023-06-10T05:46:59;20.60;57.50
16172;DHT22;8192;53.596;10.166;2023-06-10T05:49:26;20.80;57.40
16172;DHT22;8192;53.596;10.166;2023-06-10T05:51:53;21.00;56.60
16172;DHT22;8192;53.596;10.166;2023-06-10T05:54:21;21.30;56.80
16172;DHT22;8192;53.596;10.166;2023-06-10T05:56:50;21.20;55.80
16172;DHT22;8192;53.596;10.166;2023-06-10T05:59:17;21.20;56.10
16172;DHT22;8192;53.596;10.166;2023-06-10T06:01:44;21.10;56.00
16172;DHT22;8192;53.596;10.166;2023-06-10T06:04:11;21.00;56.00
16172;DHT22;8192;53.596;10.166;2023-06-10T06:06:39;21.00;56.00
16172;DHT22;8192;53.596;10.166;2023-06-10T06:09:06;20.60;57.60
16172;DHT22;8192;53.596;10.166;2023-06-10T06:11:34;21.10;57.30
16172;DHT22;8192;53.596;10.166;2023-06-10T06:14:03;21.00;56.90
16172;DHT22;8192;53.596;10.166;2023-06-10T06:16:30;21.20;56.90
16172;DHT22;8192;53.596;10.166;2023-06-10T06:18:57;21.70;55.20
16172;DHT22;8192;53.596;10.166;2023-06-10T06:21:24;21.70;54.30
16172;DHT22;8192;53.596;10.166;2023-06-10T06:23:51;21.70;55.70
16172;DHT22;8192;53.596;10.166;2023-06-10T06:26:18;22.00;54.40
16172;DHT22;8192;53.596;10.166;2023-06-10T06:28:46;22.10;53.50
16172;DHT22;8192;53.596;10.166;2023-06-10T06:31:14;21.90;54.20
16172;DHT22;8192;53.596;10.166;2023-06-10T06:33:41;21.60;55.30
16172;DHT22;8192;53.596;10.166;2023-06-10T06:36:08;21.90;54.70
16172;DHT22;8192;53.596;10.166;2023-06-10T06:38:35;22.70;53.00
16172;DHT22;8192;53.596;10.166;2023-06-10T06:41:08;22.70;51.80
16172;DHT22;8192;53.596;10.166;2023-06-10T06:43:35;23.10;52.90
16172;DHT22;8192;53.596;10.166;2023-06-10T06:46:02;24.10;49.80
16172;DHT22;8192;53.596;10.166;2023-06-10T06:48:31;24.10;48.70
16172;DHT22;8192;53.596;10.166;2023-06-10T06:51:04;23.40;49.60
16172;DHT22;8192;53.596;10.166;2023-06-10T06:53:31;22.80;51.50
16172;DHT22;8192;53.596;10.166;2023-06-10T06:55:58;22.70;52.50
16172;DHT22;8192;53.596;10.166;2023-06-10T06:58:25;23.30;50.80
16172;DHT22;8192;53.596;10.166;2023-06-10T07:01:03;23.80;50.60
16172;DHT22;8192;53.596;10.166;2023-06-10T07:03:34;24.30;48.40
16172;DHT22;8192;53.596;10.166;2023-06-10T07:06:00;24.10;48.30
16172;DHT22;8192;53.596;10.166;2023-06-10T07:08:27;23.80;49.70
16172;DHT22;8192;53.596;10.166;2023-06-10T07:10:54;24.40;47.90
16172;DHT22;8192;53.596;10.166;2023-06-10T07:13:21;24.00;50.00
16172;DHT22;8192;53.596;10.166;2023-06-10T07:15:48;24.40;48.80
16172;DHT22;8192;53.596;10.166;2023-06-10T07:18:16;24.80;48.50
16172;DHT22;8192;53.596;10.166;2023-06-10T07:20:45;24.70;47.30
16172;DHT22;8192;53.596;10.166;2023-06-10T07:23:12;24.30;48.20
16172;DHT22;8192;53.596;10.166;2023-06-10T07:25:39;24.30;48.40
16172;DHT22;8192;53.596;10.166;2023-06-10T07:28:07;24.40;49.10
16172;DHT22;8192;53.596;10.166;2023-06-10T07:30:34;25.00;47.10
16172;DHT22;8192;53.596;10.166;2023-06-10T07:33:01;24.90;47.70
16172;DHT22;8192;53.596;10.166;2023-06-10T07:35:28;24.60;47.60
16172;DHT22;8192;53.596;10.166;2023-06-10T07:37:57;24.70;48.00
16172;DHT22;8192;53.596;10.166;2023-06-10T07:40:24;25.30;46.40
16172;DHT22;8192;53.596;10.166;2023-06-10T07:42:51;25.20;45.60
16172;DHT22;8192;53.596;10.166;2023-06-10T07:45:18;25.20;47.10
16172;DHT22;8192;53.596;10.166;2023-06-10T07:47:46;25.60;45.60
16172;DHT22;8192;53.596;10.166;2023-06-10T07:50:13;25.70;45.60
16172;DHT22;8192;53.596;10.166;2023-06-10T07:52:41;25.70;45.80
16172;DHT22;8192;53.596;10.166;2023-06-10T07:55:09;25.10;46.50
16172;DHT22;8192;53.596;10.166;2023-06-10T07:57:37;25.00;47.60
16172;DHT22;8192;53.596;10.166;2023-06-10T08:00:05;26.00;47.60
16172;DHT22;8192;53.596;10.166;2023-06-10T08:02:32;26.10;44.10
16172;DHT22;8192;53.596;10.166;2023-06-10T08:05:03;26.30;45.30
16172;DHT22;8192;53.596;10.166;2023-06-10T08:07:30;26.20;45.10
16172;DHT22;8192;53.596;10.166;2023-06-10T08:09:57;26.30;46.50
16172;DHT22;8192;53.596;10.166;2023-06-10T08:12:29;26.90;43.20
16172;DHT22;8192;53.596;10.166;2023-06-10T08:14:57;27.20;43.30
16172;DHT22;8192;53.596;10.166;2023-06-10T08:17:25;26.90;43.50
16172;DHT22;8192;53.596;10.166;2023-06-10T08:19:52;25.90;46.90
16172;DHT22;8192;53.596;10.166;2023-06-10T08:22:19;26.10;45.80
16172;DHT22;8192;53.596;10.166;2023-06-10T08:24:46;26.50;44.50
16172;DHT22;8192;53.596;10.166;2023-06-10T08:27:13;26.50;44.90
16172;DHT22;8192;53.596;10.166;2023-06-10T08:29:42;26.30;44.20
16172;DHT22;8192;53.596;10.166;2023-06-10T08:32:09;25.70;45.40
16172;DHT22;8192;53.596;10.166;2023-06-10T08:34:36;25.80;46.00
16172;DHT22;8192;53.596;10.166;2023-06-10T08:37:04;26.00;45.40
16172;DHT22;8192;53.596;10.166;2023-06-10T08:39:31;26.10;44.60
16172;DHT22;8192;53.596;10.166;2023-06-10T08:42:08;25.60;46.20
16172;DHT22;8192;53.596;10.166;2023-06-10T08:44:38;25.70;46.30
16172;DHT22;8192;53.596;10.166;2023-06-10T08:47:13;25.70;46.20
16172;DHT22;8192;53.596;10.166;2023-06-10T08:49:44;26.00;45.90
16172;DHT22;8192;53.596;10.166;2023-06-10T08:52:14;26.50;44.10
16172;DHT22;8192;53.596;10.166;2023-06-10T08:54:49;26.10;45.30
16172;DHT22;8192;53.596;10.166;2023-06-10T08:57:18;25.60;46.10
16172;DHT22;8192;53.596;10.166;2023-06-10T08:59:46;24.90;48.30
16172;DHT22;8192;53.596;10.166;2023-06-10T09:02:15;24.60;49.10
16172;DHT22;8192;53.596;10.166;2023-06-10T09:04:47;24.10;50.10
16172;DHT22;8192;53.596;10.166;2023-06-10T09:07:16;23.80;51.80
16172;DHT22;8192;53.596;10.166;2023-06-10T09:09:44;23.40;52.90
16172;DHT22;8192;53.596;10.166;2023-06-10T09:12:13;23.30;54.00
16172;DHT22;8192;53.596;10.166;2023-06-10T09:14:41;23.30;53.90
16172;DHT22;8192;53.596;10.166;2023-06-10T09:17:08;23.10;54.90
16172;DHT22;8192;53.596;10.166;2023-06-10T09:19:38;23.00;55.00
16172;DHT22;8192;53.596;10.166;2023-06-10T09:22:08;23.00;55.70
16172;DHT22;8192;53.596;10.166;2023-06-10T09:24:35;22.90;54.80
16172;DHT22;8192;53.596;10.166;2023-06-10T09:27:03;22.70;56.10
16172;DHT22;8192;53.596;10.166;2023-06-10T09:29:30;22.70;55.90
16172;DHT22;8192;53.596;10.166;2023-06-10T09:31:57;22.90;56.10
16172;DHT22;8192;53.596;10.166;2023-06-10T09:34:25;22.90;56.20
16172;DHT22;8192;53.596;10.166;2023-06-10T09:36:54;22.80;56.00
16172;DHT22;8192;53.596;10.166;2023-06-10T09:39:21;22.90;56.20
16172;DHT22;8192;53.596;10.166;2023-06-10T09:41:49;22.80;56.40
16172;DHT22;8192;53.596;10.166;2023-06-10T09:44:17;22.80;57.10
16172;DHT22;8192;53.596;10.166;2023-06-10T09:46:45;22.90;56.20
16172;DHT22;8192;53.596;10.166;2023-06-10T09:49:13;22.90;57.30
16172;DHT22;8192;53.596;10.166;2023-06-10T09:51:49;23.00;56.10
16172;DHT22;8192;53.596;10.166;2023-06-10T09:54:18;23.00;55.50
16172;DHT22;8192;53.596;10.166;2023-06-10T09:56:48;22.90;56.20
16172;DHT22;8192;53.596;10.166;2023-06-10T09:59:15;22.90;56.30
16172;DHT22;8192;53.596;10.166;2023-06-10T10:01:42;22.80;56.20
16172;DHT22;8192;53.596;10.166;2023-06-10T10:04:09;22.80;56.40
16172;DHT22;8192;53.596;10.166;2023-06-10T10:06:39;22.80;56.90
16172;DHT22;8192;53.596;10.166;2023-06-10T10:09:07;22.90;57.30
16172;DHT22;8192;53.596;10.166;2023-06-10T10:11:36;23.10;56.70
16172;DHT22;8192;53.596;10.166;2023-06-10T10:14:04;23.10;55.70
16172;DHT22;8192;53.596;10.166;2023-06-10T10:16:36;23.20;56.00
16172;DHT22;8192;53.596;10.166;2023-06-10T10:19:07;23.30;55.90
16172;DHT22;8192;53.596;10.166;2023-06-10T10:21:39;23.50;56.50
16172;DHT22;8192;53.596;10.166;2023-06-10T10:24:09;23.50;55.10
16172;DHT22;8192;53.596;10.166;2023-06-10T10:26:40;23.50;55.20
16172;DHT22;8192;53.596;10.166;2023-06-10T10:29:11;23.60;55.90
16172;DHT22;8192;53.596;10.166;2023-06-10T10:31:42;23.60;56.60
16172;DHT22;8192;53.596;10.166;2023-06-10T10:34:13;23.70;56.70
16172;DHT22;8192;53.596;10.166;2023-06-10T10:36:42;23.80;54.60
16172;DHT22;8192;53.596;10.166;2023-06-10T10:39:09;23.80;54.60
16172;DHT22;8192;53.596;10.166;2023-06-10T10:41:39;23.90;54.20
16172;DHT22;8192;53.596;10.166;2023-06-10T10:44:07;23.70;55.30
16172;DHT22;8192;53.596;10.166;2023-06-10T10:46:42;23.70;55.60
16172;DHT22;8192;53.596;10.166;2023-06-10T10:49:11;23.80;56.10
16172;DHT22;8192;53.596;10.166;2023-06-10T10:51:54;23.90;54.50
16172;DHT22;8192;53.596;10.166;2023-06-10T10:54:28;24.00;54.50
16172;DHT22;8192;53.596;10.166;2023-06-10T10:57:14;24.10;55.30
16172;DHT22;8192;53.596;10.166;2023-06-10T10:59:53;24.20;54.80
16172;DHT22;8192;53.596;10.166;2023-06-10T11:02:36;24.50;53.20
16172;DHT22;8192;53.596;10.166;2023-06-10T11:05:06;24.20;53.70
16172;DHT22;8192;53.596;10.166;2023-06-10T11:07:34;24.00;56.10
16172;DHT22;8192;53.596;10.166;2023-06-10T11:10:03;24.20;55.40
16172;DHT22;8192;53.596;10.166;2023-06-10T11:12:51;24.50;53.70
16172;DHT22;8192;53.596;10.166;2023-06-10T11:15:23;24.20;54.40
16172;DHT22;8192;53.596;10.166;2023-06-10T11:18:23;24.30;55.40
16172;DHT22;8192;53.596;10.166;2023-06-10T11:20:55;24.40;55.20
16172;DHT22;8192;53.596;10.166;2023-06-10T11:23:39;24.60;53.30
16172;DHT22;8192;53.596;10.166;2023-06-10T11:26:16;24.70;54.90
16172;DHT22;8192;53.596;10.166;2023-06-10T11:29:09;24.80;53.40
16172;DHT22;8192;53.596;10.166;2023-06-10T11:31:42;24.80;53.60
16172;DHT22;8192;53.596;10.166;2023-06-10T11:34:09;24.60;53.90
16172;DHT22;8192;53.596;10.166;2023-06-10T11:36:38;24.70;54.00
16172;DHT22;8192;53.596;10.166;2023-06-10T11:39:08;24.80;54.00
16172;DHT22;8192;53.596;10.166;2023-06-10T11:41:37;24.80;53.20
16172;DHT22;8192;53.596;10.166;2023-06-10T11:44:09;24.40;54.60
16172;DHT22;8192;53.596;10.166;2023-06-10T11:46:37;24.50;55.10
16172;DHT22;8192;53.596;10.166;2023-06-10T11:49:05;24.60;54.80
16172;DHT22;8192;53.596;10.166;2023-06-10T11:51:34;24.80;52.60
16172;DHT22;8192;53.596;10.166;2023-06-10T11:54:01;24.80;53.90
16172;DHT22;8192;53.596;10.166;2023-06-10T11:56:29;24.80;54.30
16172;DHT22;8192;53.596;10.166;2023-06-10T11:59:00;24.80;52.90
16172;DHT22;8192;53.596;10.166;2023-06-10T12:01:32;24.80;52.40
16172;DHT22;8192;53.596;10.166;2023-06-10T12:04:01;24.80;53.70
16172;DHT22;8192;53.596;10.166;2023-06-10T12:06:38;24.70;53.70
16172;DHT22;8192;53.596;10.166;2023-06-10T12:09:05;24.90;52.60
16172;DHT22;8192;53.596;10.166;2023-06-10T12:11:32;25.10;53.00
16172;DHT22;8192;53.596;10.166;2023-06-10T12:14:00;25.20;53.00
16172;DHT22;8192;53.596;10.166;2023-06-10T12:16:29;25.20;52.20
16172;DHT22;8192;53.596;10.166;2023-06-10T12:19:03;25.20;52.50
16172;DHT22;8192;53.596;10.166;2023-06-10T12:21:32;25.30;53.60
16172;DHT22;8192;53.596;10.166;2023-06-10T12:24:07;25.40;52.70
16172;DHT22;8192;53.596;10.166;2023-06-10T12:26:41;25.70;51.90
16172;DHT22;8192;53.596;10.166;2023-06-10T12:29:19;26.00;49.70
16172;DHT22;8192;53.596;10.166;2023-06-10T12:32:00;26.10;50.70
16172;DHT22;8192;53.596;10.166;2023-06-10T12:34:34;26.20;49.70
16172;DHT22;8192;53.596;10.166;2023-06-10T12:37:03;26.10;49.60
16172;DHT22;8192;53.596;10.166;2023-06-10T12:39:31;26.00;50.00
16172;DHT22;8192;53.596;10.166;2023-06-10T12:41:58;25.90;50.50
16172;DHT22;8192;53.596;10.166;2023-06-10T12:44:30;25.90;50.90
16172;DHT22;8192;53.596;10.166;2023-06-10T12:46:57;26.20;52.00
16172;DHT22;8192;53.596;10.166;2023-06-10T12:49:24;26.40;52.60
16172;DHT22;8192;53.596;10.166;2023-06-10T12:51:53;26.60;49.70
16172;DHT22;8192;53.596;10.166;2023-06-10T12:54:20;26.70;50.10
16172;DHT22;8192;53.596;10.166;2023-06-10T12:56:49;26.20;50.10
16172;DHT22;8192;53.596;10.166;2023-06-10T12:59:16;26.20;50.40
16172;DHT22;8192;53.596;10.166;2023-06-10T13:01:43;26.30;49.60
16172;DHT22;8192;53.596;10.166;2023-06-10T13:04:10;26.30;50.10
16172;DHT22;8192;53.596;10.166;2023-06-10T13:06:38;26.60;49.80
16172;DHT22;8192;53.596;10.166;2023-06-10T13:09:07;26.60;48.50
16172;DHT22;8192;53.596;10.166;2023-06-10T13:11:35;26.70;49.20
16172;DHT22;8192;53.596;10.166;2023-06-10T13:14:03;26.60;49.50
16172;DHT22;8192;53.596;10.166;2023-06-10T13:16:32;26.60;50.60
16172;DHT22;8192;53.596;10.166;2023-06-10T13:18:59;26.60;50.60
16172;DHT22;8192;53.596;10.166;2023-06-10T13:21:28;26.60;50.70
16172;DHT22;8192;53.596;10.166;2023-06-10T13:23:55;26.60;50.80
16172;DHT22;8192;53.596;10.166;2023-06-10T13:26:23;26.80;51.00
16172;DHT22;8192;53.596;10.166;2023-06-10T13:28:50;27.10;50.90
16172;DHT22;8192;53.596;10.166;2023-06-10T13:31:18;27.00;50.40
16172;DHT22;8192;53.596;10.166;2023-06-10T13:33:47;26.80;51.00
16172;DHT22;8192;53.596;10.166;2023-06-10T13:36:16;26.60;50.80
16172;DHT22;8192;53.596;10.166;2023-06-10T13:38:43;26.60;51.30
16172;DHT22;8192;53.596;10.166;2023-06-10T13:41:11;26.60;50.80
16172;DHT22;8192;53.596;10.166;2023-06-10T13:43:44;26.70;50.60
16172;DHT22;8192;53.596;10.166;2023-06-10T13:49:33;26.90;50.30
16172;DHT22;8192;53.596;10.166;2023-06-10T13:52:01;27.10;50.50
16172;DHT22;8192;53.596;10.166;2023-06-10T13:54:28;27.10;51.10
16172;DHT22;8192;53.596;10.166;2023-06-10T13:56:55;27.50;51.70
16172;DHT22;8192;53.596;10.166;2023-06-10T13:59:23;27.80;49.50
16172;DHT22;8192;53.596;10.166;2023-06-10T14:02:09;27.30;49.50
16172;DHT22;8192;53.596;10.166;2023-06-10T14:04:36;27.50;49.70
16172;DHT22;8192;53.596;10.166;2023-06-10T14:07:04;28.00;48.10
16172;DHT22;8192;53.596;10.166;2023-06-10T14:16:17;28.60;46.50
16172;DHT22;8192;53.596;10.166;2023-06-10T14:22:06;28.80;47.10
16172;DHT22;8192;53.596;10.166;2023-06-10T14:27:55;28.40;46.70
16172;DHT22;8192;53.596;10.166;2023-06-10T14:30:25;29.10;46.40
16172;DHT22;8192;53.596;10.166;2023-06-10T14:33:22;29.00;45.80
16172;DHT22;8192;53.596;10.166;2023-06-10T14:35:50;28.40;46.10
16172;DHT22;8192;53.596;10.166;2023-06-10T14:38:17;28.60;46.80
16172;DHT22;8192;53.596;10.166;2023-06-10T14:40:44;29.20;45.20
16172;DHT22;8192;53.596;10.166;2023-06-10T14:43:12;28.70;46.00
16172;DHT22;8192;53.596;10.166;2023-06-10T14:45:39;28.50;46.60
16172;DHT22;8192;53.596;10.166;2023-06-10T14:48:07;28.90;46.50
16172;DHT22;8192;53.596;10.166;2023-06-10T14:50:36;29.20;45.20
16172;DHT22;8192;53.596;10.166;2023-06-10T14:53:04;29.20;45.30
16172;DHT22;8192;53.596;10.166;2023-06-10T14:55:30;29.00;44.40
16172;DHT22;8192;53.596;10.166;2023-06-10T14:57:58;28.70;46.20
16172;DHT22;8192;53.596;10.166;2023-06-10T15:00:25;28.50;47.40
16172;DHT22;8192;53.596;10.166;2023-06-10T15:02:52;28.50;45.80
16172;DHT22;8192;53.596;10.166;2023-06-10T15:06:00;28.40;45.90
16172;DHT22;8192;53.596;10.166;2023-06-10T15:08:27;28.10;46.30
16172;DHT22;8192;53.596;10.166;2023-06-10T15:10:54;27.70;47.20
16172;DHT22;8192;53.596;10.166;2023-06-10T15:13:23;27.40;48.20
16172;DHT22;8192;53.596;10.166;2023-06-10T15:15:50;27.40;48.70
16172;DHT22;8192;53.596;10.166;2023-06-10T15:18:23;27.50;47.80
16172;DHT22;8192;53.596;10.166;2023-06-10T15:20:50;27.40;47.80
16172;DHT22;8192;53.596;10.166;2023-06-10T15:23:19;27.10;48.30
16172;DHT22;8192;53.596;10.166;2023-06-10T15:25:47;27.30;48.00
16172;DHT22;8192;53.596;10.166;2023-06-10T15:28:14;27.30;47.90
16172;DHT22;8192;53.596;10.166;2023-06-10T15:30:41;27.50;47.90
16172;DHT22;8192;53.596;10.166;2023-06-10T15:33:10;27.50;47.40
16172;DHT22;8192;53.596;10.166;2023-06-10T15:35:37;27.00;48.00
16172;DHT22;8192;53.596;10.166;2023-06-10T15:38:04;27.00;48.40
16172;DHT22;8192;53.596;10.166;2023-06-10T15:40:33;27.10;48.50
16172;DHT22;8192;53.596;10.166;2023-06-10T15:43:00;27.00;48.40
16172;DHT22;8192;53.596;10.166;2023-06-10T15:45:27;27.20;49.60
16172;DHT22;8192;53.596;10.166;2023-06-10T15:47:54;26.90;48.60
16172;DHT22;8192;53.596;10.166;2023-06-10T15:50:22;26.80;50.00
16172;DHT22;8192;53.596;10.166;2023-06-10T15:52:49;26.60;49.60
16172;DHT22;8192;53.596;10.166;2023-06-10T15:55:36;26.60;49.10
16172;DHT22;8192;53.596;10.166;2023-06-10T15:58:04;26.60;48.90